createdAt,value
2018-03-21T00:08:36.823Z,1020.23
2018-03-21T00:18:36.771Z,1020.3
2018-03-21T00:28:36.844Z,1020.3
2018-03-21T00:38:36.790Z,1020.35
2018-03-21T00:48:36.881Z,1020.45
2018-03-21T00:58:36.854Z,1020.28
2018-03-21T01:08:36.793Z,1020.35
2018-03-21T01:18:36.843Z,1020.42
2018-03-21T01:28:36.802Z,1020.4
2018-03-21T01:38:36.864Z,1020.34
2018-03-21T01:48:36.814Z,1020.34
2018-03-21T01:58:36.902Z,1020.29
2018-03-21T02:08:36.855Z,1020.23
2018-03-21T02:18:36.910Z,1020.3
2018-03-21T02:28:36.871Z,1020.27
2018-03-21T02:38:36.932Z,1020.38
2018-03-21T02:48:36.895Z,1020.39
2018-03-21T02:58:36.884Z,1020.44
2018-03-21T03:08:36.945Z,1020.47
2018-03-21T03:18:36.893Z,1020.55
2018-03-21T03:28:36.944Z,1020.48
2018-03-21T03:38:36.914Z,1020.39
2018-03-21T03:48:36.992Z,1020.51
2018-03-21T03:58:36.928Z,1020.5
2018-03-21T04:08:36.996Z,1020.42
2018-03-21T04:18:36.978Z,1020.53
2018-03-21T04:28:36.928Z,1020.45
2018-03-21T04:38:36.984Z,1020.54
2018-03-21T04:48:36.944Z,1020.4
2018-03-21T04:58:37.010Z,1020.4
2018-03-21T05:08:36.964Z,1020.39
2018-03-21T05:18:37.031Z,1020.44
2018-03-21T05:28:36.986Z,1020.48
2018-03-21T05:38:37.059Z,1020.59
2018-03-21T05:48:37.023Z,1020.68
2018-03-21T05:58:36.967Z,1020.84
2018-03-21T06:08:37.026Z,1020.93
2018-03-21T06:18:37.008Z,1021.08
2018-03-21T06:28:37.071Z,1021.28
2018-03-21T06:38:37.019Z,1021.24
2018-03-21T06:48:37.095Z,1021.3
2018-03-21T06:58:37.052Z,1021.33
2018-03-21T07:08:37.101Z,1021.28
2018-03-21T07:18:37.054Z,1021.31
2018-03-21T07:28:37.146Z,1021.43
2018-03-21T07:38:37.119Z,1021.49
2018-03-21T07:48:37.060Z,1021.65
2018-03-21T07:58:37.115Z,1021.66
2018-03-21T08:08:37.080Z,1021.62
2018-03-21T08:18:37.136Z,1021.67
2018-03-21T08:28:37.180Z,1021.72
2018-03-21T08:38:37.179Z,1021.69
